Flight Track Log - Related Links

Times and Time Zones

All times are in EDT time to prevent confusion due to time zone crossing. See the UCA4838 flight status page for this flight to view local times or setup timezone preferences in your user account.

Time Position Orientation Groundspeed Altitude Reporting Facility
EDT Latitude Longitude Course Direction KTS MPH feet Rate Location/Type
Fri 06:14:52 AM 43.1056 -77.6883 171° South 121 139 1,100  Level Cleveland Center
Fri 06:15:58 AM 43.0636 -77.6789 171° South 195 224 2,200 1,039 Climbing Cleveland Center
Fri 06:16:59 AM 43.0472 -77.6058 107° East 199 229 3,300 1,077 Climbing Cleveland Center
Fri 06:17:55 AM 43.0250 -77.5500 119° Southeast 202 232 4,300 1,241 Climbing Cleveland Center
Fri 06:18:55 AM 43.0000 -77.4775 115° Southeast 221 254 5,700 1,350 Climbing Cleveland Center
Fri 06:19:55 AM 42.9772 -77.4047 113° Southeast 216 249 7,000 1,350 Climbing Cleveland Center
Fri 06:20:55 AM 42.9461 -77.3356 122° Southeast 216 249 8,400 1,250 Climbing Cleveland Center
Fri 06:21:55 AM 42.9211 -77.2631 115° Southeast 216 249 9,500 1,096 Climbing Cleveland Center
Fri 06:24:12 AM 42.8592 -77.0822 115° Southeast 220 253 12,000 1,066 Climbing New York Center
Fri 06:25:12 AM 42.8297 -77.0086 119° Southeast 220 253 13,000 500 Climbing New York Center
Fri 06:26:12 AM 42.7964 -76.9264 119° Southeast 234 269 13,000  Level New York Center
Fri 06:27:12 AM 42.7572 -76.8378 121° Southeast 258 297 13,000  Level New York Center
Fri 06:28:12 AM 42.7161 -76.7467 122° Southeast 271 312 13,000  Level New York Center
Fri 06:29:12 AM 42.6769 -76.6556 120° Southeast 276 318 13,000  Level New York Center
Fri 06:30:12 AM 42.6356 -76.5672 122° Southeast 276 318 13,000  Level New York Center
Fri 06:30:51 AM 42.6108 -76.5142 122° Southeast 277 319 13,000  Level Boston Center
Fri 06:31:52 AM 42.5722 -76.4244 120° Southeast 282 325 13,000  Level Boston Center
Fri 06:32:51 AM 42.5294 -76.3342 123° Southeast 282 325 13,000  Level Boston Center
Fri 06:33:52 AM 42.4889 -76.2444 121° Southeast 282 325 13,000  Level Boston Center
Fri 06:34:51 AM 42.4558 -76.1664 120° Southeast 282 325 13,000  Level Boston Center
Fri 06:35:53 AM 42.4150 -76.0767 122° Southeast 281 323 13,000  Level Boston Center
Fri 06:36:51 AM 42.3781 -75.9986 123° Southeast 271 312 13,000  Level Boston Center
Fri 06:37:51 AM 42.3389 -75.9122 122° Southeast 259 298 13,000  Level Boston Center
Fri 06:38:52 AM 42.3019 -75.8286 121° Southeast 254 292 13,000  Level Boston Center
Fri 06:39:53 AM 42.2647 -75.7453 121° Southeast 254 292 13,000  Level Boston Center
Fri 06:40:51 AM 42.2233 -75.6617 124° Southeast 260 299 13,000  Level Boston Center
Fri 06:41:53 AM 42.1842 -75.5728 121° Southeast 260 299 13,000  Level Boston Center
Fri 06:42:53 AM 42.1447 -75.4867 122° Southeast 265 305 13,000  Level Boston Center
Fri 06:43:51 AM 42.1033 -75.4008 123° Southeast 270 311 13,000  Level Boston Center
Fri 06:44:51 AM 42.0658 -75.3150 120° Southeast 270 311 13,000  Level Boston Center
Fri 06:45:51 AM 42.0306 -75.2242 118° Southeast 270 311 13,000  Level Boston Center
Fri 06:46:52 AM 41.9953 -75.1358 118° Southeast 265 305 13,000  Level Boston Center
Fri 06:47:52 AM 41.9600 -75.0422 117° Southeast 276 318 13,000  Level Boston Center
Fri 06:48:53 AM 41.9264 -74.9517 116° Southeast 276 318 13,000 -454 Level Boston Center
Fri 06:49:51 AM 41.8672 -74.8933 144° Southeast 263 303 12,100 -1,100 Descending Boston Center
Fri 06:50:53 AM 41.7994 -74.8517 155° Southeast 263 303 10,800 -1,190 Descending Boston Center
Fri 06:51:52 AM 41.7317 -74.8047 153° Southeast 268 308 9,700 -1,210 Descending Boston Center
Fri 06:52:52 AM 41.6639 -74.7578 153° Southeast 274 315 8,400 -1,160 Descending Boston Center
Fri 06:53:51 AM 41.5958 -74.7136 154° Southeast 274 315 7,400 -1,059 Descending Boston Center
Fri 06:54:51 AM 41.5322 -74.6697 153° Southeast 268 308 6,300 -700 Descending Boston Center
Fri 06:55:51 AM 41.4706 -74.6314 155° Southeast 258 297 6,000 -131 Descending Boston Center
Fri 06:57:08 AM 41.3833 -74.6000 165° South 241 277 6,000  Level New York TRACON
Fri 06:58:08 AM 41.3333 -74.6167 194° South 237 273 6,000 -316 Level New York TRACON
Fri 06:59:02 AM 41.2833 -74.5833 153° Southeast 243 280 5,400 -526 Descending New York TRACON
Fri 07:00:02 AM 41.2333 -74.5167 135° Southeast 247 284 5,000 -211 Descending New York TRACON
Fri 07:00:56 AM 41.1833 -74.4667 143° Southeast 245 282 5,000  Level New York TRACON
Fri 07:01:56 AM 41.1333 -74.4000 135° Southeast 247 284 5,000  Level New York TRACON
Fri 07:02:50 AM 41.0833 -74.3500 143° Southeast 246 283 5,000  Level New York TRACON
Fri 07:03:50 AM 41.0333 -74.2833 135° Southeast 246 283 5,000 -300 Level New York TRACON
Fri 07:04:50 AM 40.9833 -74.2333 143° Southeast 248 285 4,400 -632 Descending New York TRACON
Fri 07:05:44 AM 40.9333 -74.1667 135° Southeast 249 287 3,800 -684 Descending New York TRACON
Fri 07:06:44 AM 40.8833 -74.1167 143° Southeast 241 277 3,100 -500 Descending New York TRACON
Fri 07:07:44 AM 40.8333 -74.0833 153° Southeast 226 260 2,800 -579 Descending New York TRACON
Fri 07:08:38 AM 40.7833 -74.1000 194° South 186 214 2,000 -789 Descending New York TRACON
Fri 07:09:38 AM 40.7500 -74.1167 201° Southwest 124 143 1,300 -700 Descending New York TRACON
Fri 07:10:38 AM 40.7333 -74.1500 237° Southwest 119 137 600 -700 Descending New York TRACON
Fri 07:12:00 AM 40.6925 -74.1687 170° South  Level Estimated
Fri 07:19:00 AM 40.6925 -74.1687 170° South  Level Estimated
Fri 07:20:00 AM 40.6925 -74.1687 170° South  Level Estimated

Login

Don't have an account? Register now (free) for customized features, flight alerts, and more!